sensor_id;sensor_type;location;lat;lon;timestamp;pressure;altitude;pressure_sealevel;temperature;humidity
7660;BME280;3872;47.902;8.162;2022-10-31T00:00:42;92507.72;;;6.24;100.00
7660;BME280;3872;47.902;8.162;2022-10-31T00:03:09;92508.22;;;6.26;100.00
7660;BME280;3872;47.902;8.162;2022-10-31T00:05:36;92502.97;;;6.21;100.00
7660;BME280;3872;47.902;8.162;2022-10-31T00:08:07;92505.09;;;6.24;100.00
7660;BME280;3872;47.902;8.162;2022-10-31T00:10:37;92503.50;;;6.18;100.00
7660;BME280;3872;47.902;8.162;2022-10-31T00:13:04;92500.03;;;6.12;100.00
7660;BME280;3872;47.902;8.162;2022-10-31T00:15:32;92503.44;;;6.13;100.00
7660;BME280;3872;47.902;8.162;2022-10-31T00:17:58;92507.63;;;6.14;100.00
7660;BME280;3872;47.902;8.162;2022-10-31T00:20:25;92505.47;;;6.06;100.00
7660;BME280;3872;47.902;8.162;2022-10-31T00:22:52;92496.38;;;6.08;100.00
7660;BME280;3872;47.902;8.162;2022-10-31T00:25:20;92497.78;;;5.89;100.00
7660;BME280;3872;47.902;8.162;2022-10-31T00:27:46;92504.50;;;5.85;100.00
7660;BME280;3872;47.902;8.162;2022-10-31T00:30:13;92502.44;;;5.87;100.00
7660;BME280;3872;47.902;8.162;2022-10-31T00:32:40;92494.06;;;5.85;100.00
7660;BME280;3872;47.902;8.162;2022-10-31T00:35:07;92495.53;;;5.76;100.00
7660;BME280;3872;47.902;8.162;2022-10-31T00:37:34;92495.03;;;5.74;100.00
7660;BME280;3872;47.902;8.162;2022-10-31T00:40:00;92496.81;;;5.68;100.00
7660;BME280;3872;47.902;8.162;2022-10-31T00:42:28;92495.09;;;5.84;100.00
7660;BME280;3872;47.902;8.162;2022-10-31T00:44:57;92495.44;;;5.87;100.00
7660;BME280;3872;47.902;8.162;2022-10-31T00:47:23;92492.22;;;5.80;100.00
7660;BME280;3872;47.902;8.162;2022-10-31T00:49:50;92497.91;;;5.77;100.00
7660;BME280;3872;47.902;8.162;2022-10-31T00:52:16;92493.69;;;5.71;100.00
7660;BME280;3872;47.902;8.162;2022-10-31T00:54:43;92491.78;;;5.62;100.00
7660;BME280;3872;47.902;8.162;2022-10-31T00:57:10;92493.56;;;5.56;100.00
7660;BME280;3872;47.902;8.162;2022-10-31T00:59:37;92486.47;;;5.51;100.00
7660;BME280;3872;47.902;8.162;2022-10-31T01:02:04;92486.81;;;5.60;100.00
7660;BME280;3872;47.902;8.162;2022-10-31T01:04:31;92483.19;;;5.61;100.00
7660;BME280;3872;47.902;8.162;2022-10-31T01:06:57;92485.00;;;5.61;100.00
7660;BME280;3872;47.902;8.162;2022-10-31T01:09:24;92483.75;;;5.68;100.00
7660;BME280;3872;47.902;8.162;2022-10-31T01:11:50;92479.78;;;5.61;100.00
7660;BME280;3872;47.902;8.162;2022-10-31T01:14:17;92492.50;;;5.52;100.00
7660;BME280;3872;47.902;8.162;2022-10-31T01:16:45;92481.94;;;5.42;100.00
7660;BME280;3872;47.902;8.162;2022-10-31T01:19:13;92493.22;;;5.21;100.00
7660;BME280;3872;47.902;8.162;2022-10-31T01:21:40;92489.41;;;5.33;100.00
7660;BME280;3872;47.902;8.162;2022-10-31T01:24:07;92482.69;;;5.37;100.00
7660;BME280;3872;47.902;8.162;2022-10-31T01:26:37;92486.47;;;5.51;100.00
7660;BME280;3872;47.902;8.162;2022-10-31T01:29:05;92484.94;;;5.56;100.00
7660;BME280;3872;47.902;8.162;2022-10-31T01:31:35;92482.78;;;5.21;100.00
7660;BME280;3872;47.902;8.162;2022-10-31T01:34:04;92485.84;;;5.39;100.00
7660;BME280;3872;47.902;8.162;2022-10-31T01:36:34;92484.72;;;5.30;100.00
7660;BME280;3872;47.902;8.162;2022-10-31T01:39:02;92482.09;;;5.30;100.00
7660;BME280;3872;47.902;8.162;2022-10-31T01:41:31;92478.41;;;5.26;100.00
7660;BME280;3872;47.902;8.162;2022-10-31T01:43:59;92480.03;;;5.32;100.00
7660;BME280;3872;47.902;8.162;2022-10-31T01:46:30;92480.16;;;5.21;100.00
7660;BME280;3872;47.902;8.162;2022-10-31T01:48:59;92476.09;;;5.30;100.00
7660;BME280;3872;47.902;8.162;2022-10-31T01:51:30;92465.63;;;5.25;100.00
7660;BME280;3872;47.902;8.162;2022-10-31T01:54:02;92473.13;;;5.21;100.00
7660;BME280;3872;47.902;8.162;2022-10-31T01:56:30;92475.63;;;5.33;100.00
7660;BME280;3872;47.902;8.162;2022-10-31T01:58:59;92476.72;;;5.15;100.00
7660;BME280;3872;47.902;8.162;2022-10-31T02:01:28;92464.94;;;5.12;100.00
7660;BME280;3872;47.902;8.162;2022-10-31T02:03:55;92467.81;;;5.11;100.00
7660;BME280;3872;47.902;8.162;2022-10-31T02:06:37;92465.47;;;5.09;100.00
7660;BME280;3872;47.902;8.162;2022-10-31T02:09:05;92462.91;;;5.15;100.00
7660;BME280;3872;47.902;8.162;2022-10-31T02:11:34;92467.75;;;5.06;100.00
7660;BME280;3872;47.902;8.162;2022-10-31T02:14:03;92464.78;;;4.97;100.00
7660;BME280;3872;47.902;8.162;2022-10-31T02:16:30;92459.84;;;4.96;100.00
7660;BME280;3872;47.902;8.162;2022-10-31T02:18:56;92456.91;;;4.92;100.00
7660;BME280;3872;47.902;8.162;2022-10-31T02:21:28;92461.91;;;4.94;100.00
7660;BME280;3872;47.902;8.162;2022-10-31T02:24:20;92458.06;;;5.01;100.00
7660;BME280;3872;47.902;8.162;2022-10-31T02:27:07;92454.03;;;4.89;100.00
7660;BME280;3872;47.902;8.162;2022-10-31T02:30:07;92452.13;;;4.84;100.00
7660;BME280;3872;47.902;8.162;2022-10-31T02:32:54;92456.56;;;4.84;100.00
7660;BME280;3872;47.902;8.162;2022-10-31T02:35:40;92453.34;;;4.98;100.00
7660;BME280;3872;47.902;8.162;2022-10-31T02:38:20;92457.75;;;4.98;100.00
7660;BME280;3872;47.902;8.162;2022-10-31T02:40:53;92452.13;;;4.84;100.00
7660;BME280;3872;47.902;8.162;2022-10-31T02:43:34;92446.59;;;4.76;100.00
7660;BME280;3872;47.902;8.162;2022-10-31T02:46:05;92448.88;;;4.72;100.00
7660;BME280;3872;47.902;8.162;2022-10-31T02:48:39;92444.50;;;4.78;100.00
7660;BME280;3872;47.902;8.162;2022-10-31T02:51:08;92454.50;;;4.86;100.00
7660;BME280;3872;47.902;8.162;2022-10-31T02:53:36;92449.41;;;4.96;100.00
7660;BME280;3872;47.902;8.162;2022-10-31T02:56:07;92444.97;;;4.96;100.00
7660;BME280;3872;47.902;8.162;2022-10-31T02:58:37;92443.59;;;4.89;100.00
7660;BME280;3872;47.902;8.162;2022-10-31T03:01:33;92444.41;;;4.67;100.00
7660;BME280;3872;47.902;8.162;2022-10-31T03:04:16;92442.69;;;4.78;100.00
7660;BME280;3872;47.902;8.162;2022-10-31T03:06:55;92438.63;;;4.87;100.00
7660;BME280;3872;47.902;8.162;2022-10-31T03:09:27;92440.91;;;4.84;100.00
7660;BME280;3872;47.902;8.162;2022-10-31T03:12:04;92436.16;;;4.76;100.00
7660;BME280;3872;47.902;8.162;2022-10-31T03:14:40;92430.88;;;4.70;100.00
7660;BME280;3872;47.902;8.162;2022-10-31T03:17:12;92433.38;;;4.60;100.00
7660;BME280;3872;47.902;8.162;2022-10-31T03:19:43;92434.66;;;4.58;100.00
7660;BME280;3872;47.902;8.162;2022-10-31T03:22:17;92442.28;;;4.64;100.00
7660;BME280;3872;47.902;8.162;2022-10-31T03:24:45;92432.41;;;4.66;100.00
7660;BME280;3872;47.902;8.162;2022-10-31T03:27:16;92427.97;;;4.67;100.00
7660;BME280;3872;47.902;8.162;2022-10-31T03:29:45;92425.94;;;4.47;100.00
7660;BME280;3872;47.902;8.162;2022-10-31T03:32:16;92431.00;;;4.37;100.00
7660;BME280;3872;47.902;8.162;2022-10-31T03:34:47;92420.63;;;4.42;100.00
7660;BME280;3872;47.902;8.162;2022-10-31T03:37:18;92420.81;;;4.57;100.00
7660;BME280;3872;47.902;8.162;2022-10-31T03:39:46;92416.72;;;4.61;100.00
7660;BME280;3872;47.902;8.162;2022-10-31T03:42:16;92424.16;;;4.53;100.00
7660;BME280;3872;47.902;8.162;2022-10-31T03:44:46;92426.22;;;4.51;100.00
7660;BME280;3872;47.902;8.162;2022-10-31T03:47:14;92418.81;;;4.43;100.00
7660;BME280;3872;47.902;8.162;2022-10-31T03:49:41;92419.75;;;4.53;100.00
7660;BME280;3872;47.902;8.162;2022-10-31T03:52:15;92419.56;;;4.60;100.00
7660;BME280;3872;47.902;8.162;2022-10-31T03:54:46;92416.41;;;4.58;100.00
7660;BME280;3872;47.902;8.162;2022-10-31T03:57:19;92417.13;;;4.53;100.00
7660;BME280;3872;47.902;8.162;2022-10-31T03:59:51;92412.44;;;4.55;100.00
7660;BME280;3872;47.902;8.162;2022-10-31T04:02:23;92413.25;;;4.56;100.00
7660;BME280;3872;47.902;8.162;2022-10-31T04:04:52;92417.06;;;4.48;100.00
7660;BME280;3872;47.902;8.162;2022-10-31T04:07:21;92413.97;;;4.51;100.00
7660;BME280;3872;47.902;8.162;2022-10-31T04:09:51;92423.75;;;4.61;100.00
7660;BME280;3872;47.902;8.162;2022-10-31T04:12:20;92413.97;;;4.51;100.00
7660;BME280;3872;47.902;8.162;2022-10-31T04:14:52;92412.91;;;4.47;100.00
7660;BME280;3872;47.902;8.162;2022-10-31T04:17:22;92416.88;;;4.55;100.00
7660;BME280;3872;47.902;8.162;2022-10-31T04:19:50;92415.78;;;4.72;100.00
7660;BME280;3872;47.902;8.162;2022-10-31T04:22:17;92407.66;;;4.69;100.00
7660;BME280;3872;47.902;8.162;2022-10-31T04:24:45;92409.38;;;4.58;100.00
7660;BME280;3872;47.902;8.162;2022-10-31T04:27:14;92410.53;;;4.46;100.00
7660;BME280;3872;47.902;8.162;2022-10-31T04:29:41;92417.19;;;4.37;100.00
7660;BME280;3872;47.902;8.162;2022-10-31T04:32:08;92417.31;;;4.25;100.00
7660;BME280;3872;47.902;8.162;2022-10-31T04:34:34;92417.56;;;4.23;100.00
7660;BME280;3872;47.902;8.162;2022-10-31T04:37:01;92408.53;;;4.09;100.00
7660;BME280;3872;47.902;8.162;2022-10-31T04:39:27;92409.69;;;4.18;100.00
7660;BME280;3872;47.902;8.162;2022-10-31T04:42:14;92411.09;;;4.26;100.00
7660;BME280;3872;47.902;8.162;2022-10-31T04:44:40;92402.28;;;4.32;100.00
7660;BME280;3872;47.902;8.162;2022-10-31T04:47:07;92405.50;;;4.39;100.00
7660;BME280;3872;47.902;8.162;2022-10-31T04:49:35;92405.50;;;4.39;100.00
7660;BME280;3872;47.902;8.162;2022-10-31T04:52:02;92407.19;;;4.28;100.00
7660;BME280;3872;47.902;8.162;2022-10-31T04:54:29;92408.22;;;4.27;100.00
7660;BME280;3872;47.902;8.162;2022-10-31T04:57:16;92396.53;;;4.30;100.00
7660;BME280;3872;47.902;8.162;2022-10-31T04:59:43;92393.69;;;4.31;100.00
7660;BME280;3872;47.902;8.162;2022-10-31T05:02:09;92399.38;;;4.28;100.00
7660;BME280;3872;47.902;8.162;2022-10-31T05:04:43;92399.25;;;4.18;100.00
7660;BME280;3872;47.902;8.162;2022-10-31T05:07:10;92397.59;;;4.12;100.00
7660;BME280;3872;47.902;8.162;2022-10-31T05:09:37;92399.91;;;4.09;100.00
7660;BME280;3872;47.902;8.162;2022-10-31T05:12:04;92401.00;;;4.13;100.00
7660;BME280;3872;47.902;8.162;2022-10-31T05:14:50;92401.78;;;4.13;100.00
7660;BME280;3872;47.902;8.162;2022-10-31T05:17:35;92395.97;;;4.06;100.00
7660;BME280;3872;47.902;8.162;2022-10-31T05:20:24;92390.53;;;4.08;100.00
7660;BME280;3872;47.902;8.162;2022-10-31T05:23:23;92387.78;;;4.19;100.00
7660;BME280;3872;47.902;8.162;2022-10-31T05:25:50;92379.31;;;4.29;100.00
7660;BME280;3872;47.902;8.162;2022-10-31T05:28:16;92376.28;;;4.15;100.00
7660;BME280;3872;47.902;8.162;2022-10-31T05:30:44;92377.38;;;4.19;100.00
7660;BME280;3872;47.902;8.162;2022-10-31T05:33:14;92386.16;;;4.13;100.00
7660;BME280;3872;47.902;8.162;2022-10-31T05:36:13;92382.34;;;4.21;100.00
7660;BME280;3872;47.902;8.162;2022-10-31T05:39:00;92379.31;;;4.07;100.00
7660;BME280;3872;47.902;8.162;2022-10-31T05:41:32;92374.72;;;4.14;100.00
7660;BME280;3872;47.902;8.162;2022-10-31T05:44:04;92377.31;;;4.14;100.00
7660;BME280;3872;47.902;8.162;2022-10-31T05:46:39;92368.47;;;4.15;100.00
7660;BME280;3872;47.902;8.162;2022-10-31T05:49:44;92365.63;;;4.17;100.00
7660;BME280;3872;47.902;8.162;2022-10-31T05:52:32;92369.41;;;4.04;100.00
7660;BME280;3872;47.902;8.162;2022-10-31T05:55:25;92365.47;;;4.23;100.00
7660;BME280;3872;47.902;8.162;2022-10-31T05:58:03;92366.34;;;4.12;100.00
7660;BME280;3872;47.902;8.162;2022-10-31T06:00:30;92374.00;;;3.97;100.00
7660;BME280;3872;47.902;8.162;2022-10-31T06:03:07;92366.97;;;3.98;100.00
7660;BME280;3872;47.902;8.162;2022-10-31T06:05:41;92364.06;;;3.94;100.00
7660;BME280;3872;47.902;8.162;2022-10-31T06:08:08;92362.28;;;4.00;100.00
7660;BME280;3872;47.902;8.162;2022-10-31T06:10:36;92365.88;;;4.15;100.00
7660;BME280;3872;47.902;8.162;2022-10-31T06:13:02;92364.13;;;4.21;100.00
7660;BME280;3872;47.902;8.162;2022-10-31T06:15:41;92368.06;;;4.02;100.00
7660;BME280;3872;47.902;8.162;2022-10-31T06:18:09;92366.28;;;4.07;100.00
7660;BME280;3872;47.902;8.162;2022-10-31T06:20:44;92366.63;;;4.11;100.00
7660;BME280;3872;47.902;8.162;2022-10-31T06:23:11;92364.78;;;4.33;100.00
7660;BME280;3872;47.902;8.162;2022-10-31T06:25:39;92364.72;;;4.28;100.00
7660;BME280;3872;47.902;8.162;2022-10-31T06:28:07;92363.22;;;4.32;100.00
7660;BME280;3872;47.902;8.162;2022-10-31T06:30:45;92366.63;;;4.32;100.00
7660;BME280;3872;47.902;8.162;2022-10-31T06:33:13;92365.88;;;4.37;100.00
7660;BME280;3872;47.902;8.162;2022-10-31T06:35:45;92372.63;;;4.33;100.00
7660;BME280;3872;47.902;8.162;2022-10-31T06:38:12;92361.09;;;4.29;100.00
7660;BME280;3872;47.902;8.162;2022-10-31T06:40:41;92367.06;;;4.51;100.00
7660;BME280;3872;47.902;8.162;2022-10-31T06:43:21;92366.63;;;4.59;100.00
7660;BME280;3872;47.902;8.162;2022-10-31T06:45:52;92364.91;;;4.70;100.00
7660;BME280;3872;47.902;8.162;2022-10-31T06:48:41;92363.59;;;4.67;100.00
7660;BME280;3872;47.902;8.162;2022-10-31T06:51:34;92357.34;;;4.68;100.00
7660;BME280;3872;47.902;8.162;2022-10-31T06:54:01;92364.06;;;4.64;100.00
7660;BME280;3872;47.902;8.162;2022-10-31T06:56:27;92359.97;;;4.68;100.00
7660;BME280;3872;47.902;8.162;2022-10-31T06:58:56;92361.50;;;4.69;100.00
7660;BME280;3872;47.902;8.162;2022-10-31T07:01:58;92358.78;;;4.81;100.00
7660;BME280;3872;47.902;8.162;2022-10-31T07:04:26;92367.13;;;4.83;100.00
7660;BME280;3872;47.902;8.162;2022-10-31T07:06:53;92373.00;;;4.95;100.00
7660;BME280;3872;47.902;8.162;2022-10-31T07:09:19;92380.66;;;5.07;100.00
7660;BME280;3872;47.902;8.162;2022-10-31T07:11:46;92378.63;;;5.14;100.00
7660;BME280;3872;47.902;8.162;2022-10-31T07:14:13;92374.41;;;5.08;100.00
7660;BME280;3872;47.902;8.162;2022-10-31T07:16:41;92370.56;;;5.16;100.00
7660;BME280;3872;47.902;8.162;2022-10-31T07:19:08;92372.19;;;5.27;100.00
7660;BME280;3872;47.902;8.162;2022-10-31T07:21:36;92370.44;;;5.32;100.00
7660;BME280;3872;47.902;8.162;2022-10-31T07:24:03;92367.66;;;5.44;100.00
7660;BME280;3872;47.902;8.162;2022-10-31T07:26:42;92370.84;;;5.51;100.00
7660;BME280;3872;47.902;8.162;2022-10-31T07:29:12;92361.72;;;5.54;100.00
7660;BME280;3872;47.902;8.162;2022-10-31T07:31:39;92366.84;;;5.80;100.00
7660;BME280;3872;47.902;8.162;2022-10-31T07:34:14;92373.81;;;6.07;100.00
7660;BME280;3872;47.902;8.162;2022-10-31T07:37:00;92375.47;;;6.23;100.00
7660;BME280;3872;47.902;8.162;2022-10-31T07:39:28;92374.47;;;6.34;100.00
7660;BME280;3872;47.902;8.162;2022-10-31T07:41:57;92377.59;;;6.36;100.00
7660;BME280;3872;47.902;8.162;2022-10-31T07:44:24;92376.28;;;6.28;100.00
7660;BME280;3872;47.902;8.162;2022-10-31T07:47:09;92376.81;;;6.36;100.00
7660;BME280;3872;47.902;8.162;2022-10-31T07:49:48;92383.94;;;6.45;100.00
7660;BME280;3872;47.902;8.162;2022-10-31T07:52:39;92375.41;;;6.80;100.00
7660;BME280;3872;47.902;8.162;2022-10-31T07:55:40;92370.22;;;6.95;100.00
7660;BME280;3872;47.902;8.162;2022-10-31T07:58:08;92370.50;;;7.14;100.00
7660;BME280;3872;47.902;8.162;2022-10-31T08:00:39;92371.28;;;7.20;100.00
7660;BME280;3872;47.902;8.162;2022-10-31T08:03:08;92373.38;;;7.53;100.00
7660;BME280;3872;47.902;8.162;2022-10-31T08:05:56;92377.81;;;7.83;100.00
7660;BME280;3872;47.902;8.162;2022-10-31T08:08:45;92380.91;;;8.05;100.00
7660;BME280;3872;47.902;8.162;2022-10-31T08:11:11;92371.47;;;8.14;100.00
7660;BME280;3872;47.902;8.162;2022-10-31T08:13:38;92376.16;;;8.33;100.00
7660;BME280;3872;47.902;8.162;2022-10-31T08:16:05;92375.03;;;8.54;100.00
7660;BME280;3872;47.902;8.162;2022-10-31T08:18:35;92368.91;;;8.79;100.00
7660;BME280;3872;47.902;8.162;2022-10-31T08:21:04;92363.84;;;8.92;100.00
7660;BME280;3872;47.902;8.162;2022-10-31T08:23:31;92361.69;;;8.99;100.00
7660;BME280;3872;47.902;8.162;2022-10-31T08:25:59;92354.28;;;9.12;100.00
7660;BME280;3872;47.902;8.162;2022-10-31T08:28:26;92361.53;;;9.25;100.00
7660;BME280;3872;47.902;8.162;2022-10-31T08:30:53;92355.84;;;9.52;100.00
7660;BME280;3872;47.902;8.162;2022-10-31T08:33:52;92353.72;;;9.82;100.00
7660;BME280;3872;47.902;8.162;2022-10-31T08:36:42;92347.22;;;10.04;100.00
7660;BME280;3872;47.902;8.162;2022-10-31T08:39:19;92342.97;;;10.37;100.00
7660;BME280;3872;47.902;8.162;2022-10-31T08:41:47;92342.47;;;10.53;100.00
7660;BME280;3872;47.902;8.162;2022-10-31T08:44:13;92339.31;;;10.56;100.00
7660;BME280;3872;47.902;8.162;2022-10-31T08:46:42;92335.78;;;10.85;100.00
7660;BME280;3872;47.902;8.162;2022-10-31T08:49:09;92342.13;;;11.03;100.00
7660;BME280;3872;47.902;8.162;2022-10-31T08:51:35;92342.69;;;11.18;100.00
7660;BME280;3872;47.902;8.162;2022-10-31T08:54:02;92339.56;;;11.35;100.00
7660;BME280;3872;47.902;8.162;2022-10-31T08:56:34;92335.28;;;11.39;100.00
7660;BME280;3872;47.902;8.162;2022-10-31T08:59:06;92338.91;;;11.43;100.00
7660;BME280;3872;47.902;8.162;2022-10-31T09:01:56;92332.56;;;11.44;100.00
7660;BME280;3872;47.902;8.162;2022-10-31T09:04:23;92326.25;;;11.59;100.00
7660;BME280;3872;47.902;8.162;2022-10-31T09:06:49;92336.53;;;11.79;100.00
7660;BME280;3872;47.902;8.162;2022-10-31T09:09:16;92322.41;;;12.16;100.00
7660;BME280;3872;47.902;8.162;2022-10-31T09:11:43;92322.59;;;11.92;100.00
7660;BME280;3872;47.902;8.162;2022-10-31T09:14:11;92314.72;;;12.33;100.00
7660;BME280;3872;47.902;8.162;2022-10-31T09:16:37;92314.88;;;12.50;100.00
7660;BME280;3872;47.902;8.162;2022-10-31T09:19:07;92312.81;;;12.75;100.00
7660;BME280;3872;47.902;8.162;2022-10-31T09:21:34;92306.25;;;13.00;100.00
7660;BME280;3872;47.902;8.162;2022-10-31T09:24:01;92301.50;;;13.10;100.00
7660;BME280;3872;47.902;8.162;2022-10-31T09:26:27;92303.78;;;13.03;100.00
7660;BME280;3872;47.902;8.162;2022-10-31T09:29:18;92296.97;;;13.24;100.00
7660;BME280;3872;47.902;8.162;2022-10-31T09:31:51;92294.06;;;13.48;100.00
7660;BME280;3872;47.902;8.162;2022-10-31T09:34:26;92282.63;;;13.61;100.00
7660;BME280;3872;47.902;8.162;2022-10-31T09:37:08;92291.28;;;13.76;100.00
7660;BME280;3872;47.902;8.162;2022-10-31T09:39:35;92292.25;;;13.57;100.00
7660;BME280;3872;47.902;8.162;2022-10-31T09:42:34;92288.44;;;13.72;100.00
7660;BME280;3872;47.902;8.162;2022-10-31T09:45:16;92288.63;;;13.76;100.00
7660;BME280;3872;47.902;8.162;2022-10-31T09:47:55;92283.69;;;13.83;100.00
7660;BME280;3872;47.902;8.162;2022-10-31T09:50:38;92285.13;;;13.89;100.00
7660;BME280;3872;47.902;8.162;2022-10-31T09:53:34;92278.91;;;14.24;100.00
7660;BME280;3872;47.902;8.162;2022-10-31T09:56:06;92276.66;;;14.40;100.00
7660;BME280;3872;47.902;8.162;2022-10-31T09:58:39;92274.22;;;14.61;100.00
7660;BME280;3872;47.902;8.162;2022-10-31T10:01:19;92266.94;;;14.92;100.00
7660;BME280;3872;47.902;8.162;2022-10-31T10:03:53;92264.94;;;15.15;100.00
7660;BME280;3872;47.902;8.162;2022-10-31T10:06:51;92270.56;;;15.22;100.00
7660;BME280;3872;47.902;8.162;2022-10-31T10:09:44;92272.13;;;15.32;100.00
7660;BME280;3872;47.902;8.162;2022-10-31T10:12:39;92266.06;;;15.40;100.00
7660;BME280;3872;47.902;8.162;2022-10-31T10:15:33;92265.91;;;15.62;100.00
7660;BME280;3872;47.902;8.162;2022-10-31T10:18:09;92263.84;;;15.76;100.00
7660;BME280;3872;47.902;8.162;2022-10-31T10:20:43;92253.84;;;15.73;100.00
7660;BME280;3872;47.902;8.162;2022-10-31T10:23:32;92262.09;;;15.97;100.00
7660;BME280;3872;47.902;8.162;2022-10-31T10:26:06;92256.28;;;16.04;100.00
7660;BME280;3872;47.902;8.162;2022-10-31T10:28:38;92253.44;;;16.09;100.00
7660;BME280;3872;47.902;8.162;2022-10-31T10:31:09;92261.38;;;16.18;100.00
7660;BME280;3872;47.902;8.162;2022-10-31T10:33:42;92258.78;;;15.92;100.00
7660;BME280;3872;47.902;8.162;2022-10-31T10:36:13;92257.31;;;16.20;100.00
7660;BME280;3872;47.902;8.162;2022-10-31T10:38:52;92252.47;;;16.22;100.00
7660;BME280;3872;47.902;8.162;2022-10-31T10:41:21;92252.94;;;16.24;100.00
7660;BME280;3872;47.902;8.162;2022-10-31T10:43:49;92252.28;;;16.57;100.00
7660;BME280;3872;47.902;8.162;2022-10-31T10:46:19;92246.13;;;16.44;100.00
7660;BME280;3872;47.902;8.162;2022-10-31T10:49:16;92247.63;;;16.24;100.00
7660;BME280;3872;47.902;8.162;2022-10-31T10:51:46;92239.19;;;15.84;100.00
7660;BME280;3872;47.902;8.162;2022-10-31T10:54:42;92244.31;;;15.89;100.00
7660;BME280;3872;47.902;8.162;2022-10-31T10:57:17;92240.13;;;16.26;100.00
7660;BME280;3872;47.902;8.162;2022-10-31T10:59:46;92238.63;;;16.46;100.00
7660;BME280;3872;47.902;8.162;2022-10-31T11:02:17;92244.97;;;16.62;100.00
7660;BME280;3872;47.902;8.162;2022-10-31T11:04:48;92234.03;;;16.55;100.00
7660;BME280;3872;47.902;8.162;2022-10-31T11:07:16;92226.56;;;16.49;100.00
7660;BME280;3872;47.902;8.162;2022-10-31T11:09:42;92224.38;;;16.51;100.00
7660;BME280;3872;47.902;8.162;2022-10-31T11:12:11;92228.84;;;16.29;100.00
7660;BME280;3872;47.902;8.162;2022-10-31T11:14:47;92218.97;;;16.38;100.00
7660;BME280;3872;47.902;8.162;2022-10-31T11:17:33;92213.94;;;16.45;100.00
7660;BME280;3872;47.902;8.162;2022-10-31T11:20:05;92226.06;;;17.05;100.00
7660;BME280;3872;47.902;8.162;2022-10-31T11:22:32;92231.78;;;17.16;100.00
7660;BME280;3872;47.902;8.162;2022-10-31T11:24:59;92232.91;;;17.48;100.00
7660;BME280;3872;47.902;8.162;2022-10-31T11:27:26;92226.66;;;17.97;100.00
7660;BME280;3872;47.902;8.162;2022-10-31T11:30:03;92221.41;;;18.46;100.00
7660;BME280;3872;47.902;8.162;2022-10-31T11:32:30;92210.41;;;18.72;100.00
7660;BME280;3872;47.902;8.162;2022-10-31T11:34:59;92209.63;;;19.36;100.00
7660;BME280;3872;47.902;8.162;2022-10-31T11:37:31;92201.25;;;19.49;100.00
7660;BME280;3872;47.902;8.162;2022-10-31T11:40:03;92204.28;;;19.91;100.00
7660;BME280;3872;47.902;8.162;2022-10-31T11:42:36;92206.59;;;19.93;100.00
7660;BME280;3872;47.902;8.162;2022-10-31T11:45:15;92200.75;;;19.87;100.00
7660;BME280;3872;47.902;8.162;2022-10-31T11:47:42;92189.41;;;20.22;100.00
7660;BME280;3872;47.902;8.162;2022-10-31T11:50:11;92181.19;;;20.46;100.00
7660;BME280;3872;47.902;8.162;2022-10-31T11:52:46;92175.28;;;20.37;100.00
7660;BME280;3872;47.902;8.162;2022-10-31T11:55:16;92168.72;;;21.39;100.00
7660;BME280;3872;47.902;8.162;2022-10-31T11:57:45;92177.84;;;20.65;97.81
7660;BME280;3872;47.902;8.162;2022-10-31T12:00:21;92179.00;;;20.83;91.83
7660;BME280;3872;47.902;8.162;2022-10-31T12:02:48;92167.75;;;22.09;89.94
7660;BME280;3872;47.902;8.162;2022-10-31T12:05:18;92159.69;;;23.37;82.88
7660;BME280;3872;47.902;8.162;2022-10-31T12:07:47;92154.88;;;23.20;78.60
7660;BME280;3872;47.902;8.162;2022-10-31T12:10:14;92153.84;;;23.61;73.84
7660;BME280;3872;47.902;8.162;2022-10-31T12:12:52;92158.44;;;22.03;65.92
7660;BME280;3872;47.902;8.162;2022-10-31T12:15:29;92145.22;;;22.62;68.30
7660;BME280;3872;47.902;8.162;2022-10-31T12:20:57;92134.13;;;24.24;60.75
7660;BME280;3872;47.902;8.162;2022-10-31T12:23:42;92119.13;;;25.36;62.45
7660;BME280;3872;47.902;8.162;2022-10-31T12:26:17;92109.31;;;25.93;58.50
7660;BME280;3872;47.902;8.162;2022-10-31T12:29:00;92105.59;;;25.22;58.10
7660;BME280;3872;47.902;8.162;2022-10-31T12:31:40;92107.66;;;24.81;55.77
7660;BME280;3872;47.902;8.162;2022-10-31T12:34:34;92105.38;;;25.62;55.29
7660;BME280;3872;47.902;8.162;2022-10-31T12:37:10;92109.63;;;25.67;52.26
7660;BME280;3872;47.902;8.162;2022-10-31T12:39:46;92099.53;;;25.50;55.23
7660;BME280;3872;47.902;8.162;2022-10-31T12:42:26;92093.66;;;25.23;49.66
7660;BME280;3872;47.902;8.162;2022-10-31T12:45:25;92086.94;;;25.89;44.88
7660;BME280;3872;47.902;8.162;2022-10-31T12:48:08;92079.25;;;26.02;46.13
7660;BME280;3872;47.902;8.162;2022-10-31T12:50:50;92079.56;;;25.58;50.27
7660;BME280;3872;47.902;8.162;2022-10-31T12:53:27;92071.69;;;25.14;50.92
7660;BME280;3872;47.902;8.162;2022-10-31T12:56:04;92068.75;;;24.68;51.10
7660;BME280;3872;47.902;8.162;2022-10-31T12:58:40;92069.09;;;25.39;51.54
7660;BME280;3872;47.902;8.162;2022-10-31T13:01:12;92060.03;;;26.39;46.42
7660;BME280;3872;47.902;8.162;2022-10-31T13:03:45;92061.94;;;26.21;45.30
7660;BME280;3872;47.902;8.162;2022-10-31T13:06:25;92056.91;;;25.91;46.63
7660;BME280;3872;47.902;8.162;2022-10-31T13:08:58;92059.31;;;24.99;45.84
7660;BME280;3872;47.902;8.162;2022-10-31T13:11:32;92056.16;;;26.36;43.01
7660;BME280;3872;47.902;8.162;2022-10-31T13:14:03;92062.34;;;26.47;41.63
7660;BME280;3872;47.902;8.162;2022-10-31T13:16:35;92048.31;;;27.13;40.53
7660;BME280;3872;47.902;8.162;2022-10-31T13:19:07;92059.75;;;27.52;39.37
7660;BME280;3872;47.902;8.162;2022-10-31T13:21:41;92055.81;;;27.67;39.08
7660;BME280;3872;47.902;8.162;2022-10-31T13:24:18;92056.06;;;27.04;39.61
7660;BME280;3872;47.902;8.162;2022-10-31T13:26:51;92051.63;;;27.52;38.09
7660;BME280;3872;47.902;8.162;2022-10-31T13:29:21;92046.88;;;27.74;39.60
7660;BME280;3872;47.902;8.162;2022-10-31T13:31:50;92034.41;;;27.87;40.74
7660;BME280;3872;47.902;8.162;2022-10-31T13:34:22;92028.72;;;26.77;42.29
7660;BME280;3872;47.902;8.162;2022-10-31T13:36:58;92036.09;;;25.95;44.32
7660;BME280;3872;47.902;8.162;2022-10-31T13:39:33;92036.28;;;25.15;49.82
7660;BME280;3872;47.902;8.162;2022-10-31T13:42:20;92036.56;;;24.85;48.08
7660;BME280;3872;47.902;8.162;2022-10-31T13:44:49;92031.88;;;24.75;47.21
7660;BME280;3872;47.902;8.162;2022-10-31T13:47:24;92039.13;;;24.68;48.56
7660;BME280;3872;47.902;8.162;2022-10-31T13:49:51;92033.72;;;24.57;50.31
7660;BME280;3872;47.902;8.162;2022-10-31T13:52:23;92034.78;;;25.25;50.33
7660;BME280;3872;47.902;8.162;2022-10-31T13:54:51;92023.75;;;25.87;46.06